Time;durP1;ratioP1;P1;durP2;ratioP2;P2;SDS_P1;SDS_P2;PMS_P1;PMS_P2;Temp;Humidity;BMP_temperature;BMP_pressure;BME280_temperature;BME280_humidity;BME280_pressure;Samples;Min_cycle;Max_cycle;Signal;HPM_P1;HPM_P2
2024/01/03 00:02:19;;;;;;;1.85;0.75;;;11.00;99.90;;;;;;5051353;28;20035;-60
2024/01/03 00:04:44;;;;;;;1.60;0.88;;;11.00;99.90;;;;;;5036977;28;20021;-55
2024/01/03 00:07:10;;;;;;;1.00;0.88;;;11.00;99.90;;;;;;5031522;28;20057;-54
2024/01/03 00:09:36;;;;;;;3.42;0.68;;;11.10;99.90;;;;;;5050525;28;20043;-53
2024/01/03 00:12:03;;;;;;;1.58;0.73;;;11.10;99.90;;;;;;5051135;28;20408;-53
2024/01/03 00:14:31;;;;;;;1.45;0.65;;;11.10;99.90;;;;;;5033252;28;20040;-58
2024/01/03 00:17:04;;;;;;;5.05;0.70;;;11.10;99.90;;;;;;5051336;28;20029;-56
2024/01/03 00:19:29;;;;;;;3.60;0.82;;;11.10;99.90;;;;;;5034138;28;20183;-52
2024/01/03 00:21:55;;;;;;;2.17;0.80;;;11.10;99.90;;;;;;5051570;28;20100;-59
2024/01/03 00:24:21;;;;;;;3.65;1.98;;;11.00;99.90;;;;;;5051122;28;20107;-57
2024/01/03 00:26:47;;;;;;;1.52;0.90;;;11.10;99.90;;;;;;5051675;28;20024;-58
2024/01/03 00:29:24;;;;;;;4.28;0.80;;;11.00;99.90;;;;;;5032968;28;20211;-57
2024/01/03 00:31:51;;;;;;;1.48;0.65;;;11.00;99.90;;;;;;5051202;28;20028;-54
2024/01/03 00:34:23;;;;;;;3.53;0.80;;;11.00;99.90;;;;;;5050670;28;20021;-56
2024/01/03 00:36:49;;;;;;;1.88;0.70;;;11.00;99.90;;;;;;5050780;28;20407;-52
2024/01/03 00:39:15;;;;;;;1.52;0.60;;;11.10;99.90;;;;;;5042941;28;20037;-51
2024/01/03 00:41:41;;;;;;;2.38;0.80;;;11.00;99.90;;;;;;5051945;28;20021;-53
2024/01/03 00:44:06;;;;;;;3.40;0.73;;;11.10;99.90;;;;;;5053683;28;20021;-56
2024/01/03 00:46:32;;;;;;;2.53;0.88;;;11.10;99.90;;;;;;5053627;28;20064;-54
2024/01/03 00:48:59;;;;;;;1.58;0.70;;;11.10;99.90;;;;;;5054111;28;20021;-52
2024/01/03 00:51:25;;;;;;;4.15;0.93;;;11.10;99.90;;;;;;5052570;28;20448;-52
2024/01/03 00:53:50;;;;;;;1.73;0.80;;;11.10;99.90;;;;;;5053976;28;20036;-51
2024/01/03 00:56:16;;;;;;;1.33;0.85;;;11.10;99.90;;;;;;5053574;28;20546;-51
2024/01/03 00:58:42;;;;;;;1.80;0.63;;;11.10;99.90;;;;;;5053519;28;20159;-53
2024/01/03 01:01:07;;;;;;;6.40;0.88;;;11.10;99.90;;;;;;5053194;28;20397;-53
2024/01/03 01:03:33;;;;;;;5.55;2.75;;;11.10;99.90;;;;;;5068287;28;20120;-52
2024/01/03 01:05:59;;;;;;;3.03;1.58;;;11.00;99.90;;;;;;5053356;28;20045;-54
2024/01/03 01:08:24;;;;;;;3.15;1.02;;;11.10;99.90;;;;;;5053371;28;20033;-48
2024/01/03 01:10:50;;;;;;;2.75;0.70;;;11.10;99.90;;;;;;5069753;28;20024;-47
2024/01/03 01:13:15;;;;;;;5.18;1.42;;;11.00;99.90;;;;;;5053364;28;20512;-52
2024/01/03 01:15:41;;;;;;;1.83;0.75;;;11.10;99.90;;;;;;5053108;28;20037;-54
2024/01/03 01:18:06;;;;;;;2.53;0.98;;;11.10;99.90;;;;;;5053419;28;20025;-51
2024/01/03 01:20:32;;;;;;;1.40;0.80;;;11.10;99.90;;;;;;5053027;28;20057;-48
2024/01/03 01:22:57;;;;;;;2.58;0.88;;;11.10;99.90;;;;;;5052701;28;20127;-52
2024/01/03 01:25:23;;;;;;;2.20;0.85;;;11.10;99.90;;;;;;5068466;28;20029;-49
2024/01/03 01:27:48;;;;;;;1.75;0.50;;;11.10;99.90;;;;;;5068149;28;20052;-52
2024/01/03 01:30:14;;;;;;;0.55;0.40;;;11.10;99.90;;;;;;5052854;28;20522;-53
2024/01/03 01:32:39;;;;;;;3.13;0.75;;;11.10;99.90;;;;;;5052319;28;20099;-49
2024/01/03 01:35:05;;;;;;;0.70;0.57;;;11.10;99.90;;;;;;5052745;28;20067;-51
2024/01/03 01:37:31;;;;;;;0.43;0.43;;;11.10;99.90;;;;;;5067841;28;20150;-51
2024/01/03 01:39:56;;;;;;;1.30;0.50;;;11.10;99.90;;;;;;5052365;28;20029;-53
2024/01/03 01:42:22;;;;;;;1.48;0.50;;;11.00;99.90;;;;;;5052286;28;20017;-52
2024/01/03 01:44:48;;;;;;;1.60;0.55;;;11.00;99.90;;;;;;5052407;28;20660;-55
2024/01/03 01:47:14;;;;;;;0.60;0.60;;;10.90;99.90;;;;;;5052505;28;20025;-52
2024/01/03 01:49:40;;;;;;;0.98;0.70;;;10.90;99.90;;;;;;5052309;28;20055;-52
2024/01/03 01:52:08;;;;;;;1.98;0.75;;;10.90;99.90;;;;;;5052730;28;20380;-52
2024/01/03 01:54:34;;;;;;;0.82;0.82;;;10.90;99.90;;;;;;5052115;28;20159;-53
2024/01/03 01:56:59;;;;;;;3.45;0.60;;;10.80;99.90;;;;;;5034206;28;20116;-52
2024/01/03 01:59:25;;;;;;;2.03;0.73;;;10.80;99.90;;;;;;5052398;28;20017;-51
2024/01/03 02:01:51;;;;;;;2.55;0.55;;;10.70;99.90;;;;;;5052249;28;20029;-55
2024/01/03 02:04:17;;;;;;;2.50;0.60;;;10.70;99.90;;;;;;5052084;28;20481;-53
2024/01/03 02:06:43;;;;;;;2.55;0.95;;;10.70;99.90;;;;;;5052125;28;20090;-52
2024/01/03 02:09:08;;;;;;;3.72;0.95;;;10.60;99.90;;;;;;5051911;28;20025;-53
2024/01/03 02:11:34;;;;;;;3.17;1.20;;;10.60;99.90;;;;;;5051503;28;20021;-52
2024/01/03 02:14:00;;;;;;;1.08;0.55;;;10.60;99.90;;;;;;5051743;28;20025;-55
2024/01/03 02:16:25;;;;;;;3.97;1.63;;;10.60;99.90;;;;;;5067528;28;20403;-53
2024/01/03 02:18:51;;;;;;;6.55;1.10;;;10.70;99.90;;;;;;5052131;28;20048;-52
2024/01/03 02:21:17;;;;;;;1.75;1.05;;;10.70;99.90;;;;;;5051882;28;20108;-52
2024/01/03 02:23:43;;;;;;;5.97;1.52;;;10.70;99.90;;;;;;5051383;28;20104;-53
2024/01/03 02:26:09;;;;;;;3.28;1.05;;;10.70;99.90;;;;;;5051600;28;20025;-52
2024/01/03 02:28:35;;;;;;;5.80;0.90;;;10.60;99.90;;;;;;5051846;28;20036;-53
2024/01/03 02:31:01;;;;;;;6.63;1.38;;;10.70;99.90;;;;;;5051482;28;20053;-51
2024/01/03 02:33:26;;;;;;;5.97;1.33;;;10.70;99.90;;;;;;5051387;28;20017;-53
2024/01/03 02:35:52;;;;;;;7.28;1.50;;;10.70;99.90;;;;;;5051631;28;20484;-50
2024/01/03 02:38:18;;;;;;;5.07;1.55;;;10.70;99.90;;;;;;5051277;28;20033;-50
2024/01/03 02:40:44;;;;;;;8.82;3.10;;;10.70;99.90;;;;;;5051633;28;20029;-53
2024/01/03 02:43:10;;;;;;;8.48;1.40;;;10.80;99.90;;;;;;5051589;28;20531;-53
2024/01/03 02:45:35;;;;;;;1.60;1.00;;;10.80;99.90;;;;;;5051465;28;20100;-52
2024/01/03 02:48:02;;;;;;;5.68;1.50;;;10.90;99.90;;;;;;5051268;28;20033;-50
2024/01/03 02:50:27;;;;;;;6.72;2.25;;;10.90;99.90;;;;;;5051590;28;20119;-50
2024/01/03 02:52:53;;;;;;;6.13;1.70;;;10.90;99.90;;;;;;5051155;28;20108;-50
2024/01/03 02:55:18;;;;;;;4.38;1.30;;;10.90;99.90;;;;;;5051350;28;20025;-55
2024/01/03 02:57:44;;;;;;;9.98;1.60;;;11.00;99.90;;;;;;5051180;28;20133;-50
2024/01/03 03:00:10;;;;;;;4.75;1.52;;;10.90;99.90;;;;;;5051365;28;20032;-48
2024/01/03 03:02:36;;;;;;;7.32;1.40;;;10.90;99.90;;;;;;5051026;28;20032;-54
2024/01/03 03:05:01;;;;;;;6.05;1.20;;;10.90;99.90;;;;;;5051173;28;20021;-50
2024/01/03 03:07:27;;;;;;;5.55;1.77;;;10.90;99.90;;;;;;5051148;28;20392;-52
2024/01/03 03:09:52;;;;;;;4.65;1.50;;;10.80;99.90;;;;;;5050909;28;20138;-50
2024/01/03 03:12:18;;;;;;;7.55;1.20;;;10.80;99.90;;;;;;5050973;28;20496;-48
2024/01/03 03:14:44;;;;;;;4.47;1.17;;;10.70;99.90;;;;;;5050863;28;20029;-50
2024/01/03 03:17:09;;;;;;;2.10;0.88;;;10.70;99.90;;;;;;5050958;28;20029;-48
2024/01/03 03:19:35;;;;;;;5.85;1.05;;;10.60;99.90;;;;;;5050995;28;20506;-49
2024/01/03 03:22:01;;;;;;;6.35;1.00;;;10.60;99.90;;;;;;5049666;28;20024;-52
2024/01/03 03:24:26;;;;;;;2.88;0.77;;;10.60;99.90;;;;;;5054277;28;20024;-49
2024/01/03 03:26:53;;;;;;;3.83;0.95;;;10.50;99.90;;;;;;5054795;28;20133;-48
2024/01/03 03:29:18;;;;;;;2.85;0.60;;;10.50;99.90;;;;;;5054758;28;20017;-48
2024/01/03 03:31:44;;;;;;;2.78;0.90;;;10.50;99.90;;;;;;5054706;28;20083;-53
2024/01/03 03:34:09;;;;;;;1.75;0.88;;;10.50;99.90;;;;;;5054746;28;20096;-52
2024/01/03 03:36:35;;;;;;;3.88;1.00;;;10.50;99.90;;;;;;5055028;28;20284;-48
2024/01/03 03:39:00;;;;;;;4.47;0.85;;;10.50;99.90;;;;;;5054467;28;20518;-47
2024/01/03 03:41:26;;;;;;;1.55;1.45;;;10.50;99.90;;;;;;5054520;28;20025;-50
2024/01/03 03:43:51;;;;;;;7.25;1.00;;;10.50;99.90;;;;;;5069963;28;20025;-52
2024/01/03 03:46:17;;;;;;;4.63;0.82;;;10.50;99.90;;;;;;5054574;28;20028;-48
2024/01/03 03:48:43;;;;;;;4.55;1.27;;;10.50;99.90;;;;;;5054639;28;20025;-52
2024/01/03 03:51:08;;;;;;;3.13;1.05;;;10.50;99.90;;;;;;5054460;28;20025;-50
2024/01/03 03:53:34;;;;;;;5.15;1.30;;;10.60;99.90;;;;;;5054642;28;20029;-49
2024/01/03 03:55:59;;;;;;;5.05;1.65;;;10.60;99.90;;;;;;5053015;28;20028;-48
2024/01/03 03:58:25;;;;;;;6.35;1.40;;;10.60;99.90;;;;;;5052763;28;20029;-48
2024/01/03 04:00:50;;;;;;;3.40;1.40;;;10.60;99.90;;;;;;5054396;28;20534;-48
2024/01/03 04:03:16;;;;;;;8.68;1.95;;;10.60;99.90;;;;;;5053906;28;20029;-50
2024/01/03 04:05:41;;;;;;;11.88;2.75;;;10.60;99.90;;;;;;5054255;28;20025;-53
2024/01/03 04:08:07;;;;;;;9.02;1.67;;;10.60;99.90;;;;;;5054116;28;20175;-50
2024/01/03 04:10:32;;;;;;;5.97;1.75;;;10.60;99.90;;;;;;5053928;28;20029;-50
2024/01/03 04:12:58;;;;;;;6.65;1.85;;;10.60;99.90;;;;;;5053762;28;20397;-48
2024/01/03 04:15:24;;;;;;;9.55;1.30;;;10.60;99.90;;;;;;5054253;28;20024;-49
2024/01/03 04:17:53;;;;;;;9.30;2.40;;;10.60;99.90;;;;;;5053864;28;20036;-50
2024/01/03 04:20:19;;;;;;;12.73;2.28;;;10.70;99.90;;;;;;5053936;28;20017;-49
2024/01/03 04:22:45;;;;;;;8.73;1.58;;;10.70;99.90;;;;;;5053590;28;20017;-48
2024/01/03 04:25:11;;;;;;;8.88;1.58;;;10.70;99.90;;;;;;5053717;28;20033;-47
2024/01/03 04:27:37;;;;;;;4.47;1.67;;;10.70;99.90;;;;;;5053705;28;20033;-47
2024/01/03 04:30:04;;;;;;;10.38;1.80;;;10.70;99.90;;;;;;5053718;28;20078;-50
2024/01/03 04:32:33;;;;;;;4.35;1.50;;;10.70;99.90;;;;;;5052052;28;20056;-51
2024/01/03 04:34:58;;;;;;;5.35;1.65;;;10.70;99.90;;;;;;5051519;28;20021;-48
2024/01/03 04:37:24;;;;;;;8.18;1.88;;;10.70;99.90;;;;;;5052182;28;20052;-51
2024/01/03 04:39:49;;;;;;;8.55;1.58;;;10.70;99.90;;;;;;5052118;28;20056;-51
2024/01/03 04:42:15;;;;;;;6.38;1.40;;;10.60;99.90;;;;;;5053423;28;20029;-50
2024/01/03 04:44:42;;;;;;;7.05;2.33;;;10.60;99.90;;;;;;5053172;28;20389;-51
2024/01/03 04:47:07;;;;;;;9.32;2.20;;;10.60;99.90;;;;;;5052143;28;20017;-49
2024/01/03 04:49:33;;;;;;;10.52;1.77;;;10.50;99.90;;;;;;5051946;28;20036;-48
2024/01/03 04:51:59;;;;;;;10.60;2.67;;;10.60;99.90;;;;;;5053095;28;20024;-47
2024/01/03 04:54:24;;;;;;;7.93;1.85;;;10.50;99.90;;;;;;5052988;28;20025;-51
2024/01/03 04:56:50;;;;;;;7.25;1.20;;;10.50;99.90;;;;;;5053144;28;20463;-46
2024/01/03 04:59:15;;;;;;;8.85;1.88;;;10.40;99.90;;;;;;5052950;28;20029;-48
2024/01/03 05:01:42;;;;;;;12.75;1.92;;;10.50;99.90;;;;;;5068707;28;20020;-53
2024/01/03 05:04:07;;;;;;;6.40;1.88;;;10.50;99.90;;;;;;5053145;28;20020;-50
2024/01/03 05:06:34;;;;;;;10.90;1.67;;;10.50;99.90;;;;;;5053103;28;20021;-53
2024/01/03 05:08:59;;;;;;;9.80;3.40;;;10.50;99.90;;;;;;5051782;28;20021;-51
2024/01/03 05:11:24;;;;;;;8.32;1.70;;;10.50;99.90;;;;;;5053088;28;20040;-52
2024/01/03 05:13:50;;;;;;;8.18;2.10;;;10.50;99.90;;;;;;5052826;28;20493;-49
2024/01/03 05:16:16;;;;;;;8.18;2.75;;;10.50;99.90;;;;;;5053000;28;20029;-51
2024/01/03 05:18:41;;;;;;;6.30;2.45;;;10.50;99.90;;;;;;5052872;28;20302;-53
2024/01/03 05:21:07;;;;;;;11.57;1.63;;;10.50;99.90;;;;;;5053001;28;20032;-51
2024/01/03 05:23:32;;;;;;;7.57;1.92;;;10.50;99.90;;;;;;5052514;28;20425;-51
2024/01/03 05:25:58;;;;;;;3.65;1.58;;;10.50;99.90;;;;;;5052833;28;20025;-54
2024/01/03 05:28:23;;;;;;;6.18;1.23;;;10.50;99.90;;;;;;5052755;28;20025;-49
2024/01/03 05:30:49;;;;;;;13.57;2.88;;;10.60;99.90;;;;;;5052683;28;20067;-50
2024/01/03 05:33:15;;;;;;;7.28;1.88;;;10.60;99.90;;;;;;5052257;28;20032;-47
2024/01/03 05:35:40;;;;;;;8.32;2.50;;;10.60;99.90;;;;;;5052424;28;20025;-51
2024/01/03 05:38:06;;;;;;;11.02;2.13;;;10.60;99.90;;;;;;5052161;28;20056;-48
2024/01/03 05:40:31;;;;;;;15.40;2.22;;;10.60;99.90;;;;;;5051185;28;20053;-50
2024/01/03 05:42:57;;;;;;;6.40;2.20;;;10.60;99.90;;;;;;5050762;28;20123;-48
2024/01/03 05:45:22;;;;;;;8.27;1.70;;;10.70;99.90;;;;;;5052156;28;20033;-50
2024/01/03 05:47:48;;;;;;;6.00;1.48;;;10.70;99.90;;;;;;5051268;28;20032;-50
2024/01/03 05:50:14;;;;;;;16.27;2.55;;;10.80;99.90;;;;;;5052132;28;20484;-50
2024/01/03 05:52:39;;;;;;;17.58;2.30;;;10.80;99.90;;;;;;5051973;28;20029;-48
2024/01/03 05:55:06;;;;;;;13.20;2.08;;;10.80;99.90;;;;;;5052094;28;20512;-49
2024/01/03 05:57:32;;;;;;;13.73;2.10;;;10.90;99.90;;;;;;5051943;28;20409;-49
2024/01/03 05:59:58;;;;;;;16.35;2.85;;;10.90;99.90;;;;;;5051966;28;20106;-50
2024/01/03 06:02:24;;;;;;;10.25;2.47;;;10.90;99.90;;;;;;5051835;28;20461;-49
2024/01/03 06:04:49;;;;;;;7.78;1.58;;;10.90;99.90;;;;;;5051797;28;20439;-51
2024/01/03 06:07:14;;;;;;;7.28;2.33;;;10.90;99.90;;;;;;5051797;28;20056;-52
2024/01/03 06:09:40;;;;;;;8.18;2.45;;;10.90;99.90;;;;;;5051749;28;20052;-51
2024/01/03 06:12:06;;;;;;;14.65;2.47;;;10.90;99.90;;;;;;5051677;28;20029;-51
2024/01/03 06:14:31;;;;;;;7.57;1.85;;;10.90;99.90;;;;;;5051532;28;20035;-52
2024/01/03 06:16:57;;;;;;;6.07;1.55;;;10.90;99.90;;;;;;5051672;28;20039;-52
2024/01/03 06:19:22;;;;;;;9.93;2.63;;;10.90;99.90;;;;;;5051639;28;20383;-51
2024/01/03 06:21:48;;;;;;;8.35;2.90;;;10.90;99.90;;;;;;5051584;28;20025;-51
2024/01/03 06:24:13;;;;;;;14.20;1.70;;;10.80;99.90;;;;;;5051468;28;20071;-50
2024/01/03 06:26:39;;;;;;;5.07;1.35;;;10.80;99.90;;;;;;5050340;28;20400;-51
2024/01/03 06:29:04;;;;;;;6.97;1.30;;;10.90;99.90;;;;;;5051595;28;20070;-48
2024/01/03 06:31:30;;;;;;;6.28;2.05;;;10.90;99.90;;;;;;5051675;28;20108;-51
2024/01/03 06:33:55;;;;;;;8.95;2.38;;;10.90;99.90;;;;;;5066725;28;20031;-52
2024/01/03 06:36:21;;;;;;;6.05;1.65;;;10.90;99.90;;;;;;5051501;28;20392;-49
2024/01/03 06:38:47;;;;;;;5.97;1.50;;;10.90;99.90;;;;;;5061292;23;20087;-53
2024/01/03 06:41:13;;;;;;;7.65;1.67;;;10.90;99.90;;;;;;5033616;28;20025;-55
2024/01/03 06:43:38;;;;;;;8.60;2.80;;;10.90;99.90;;;;;;5051290;28;20511;-54
2024/01/03 06:46:05;;;;;;;9.57;2.03;;;10.90;99.90;;;;;;5033808;28;20529;-54
2024/01/03 06:48:30;;;;;;;10.55;2.72;;;10.80;99.90;;;;;;5051467;28;20021;-54
2024/01/03 06:50:56;;;;;;;11.55;1.63;;;10.80;99.90;;;;;;5051712;28;20083;-55
2024/01/03 06:53:21;;;;;;;6.35;1.50;;;10.70;99.90;;;;;;5033477;28;20030;-54
2024/01/03 06:55:47;;;;;;;8.70;2.10;;;10.70;99.90;;;;;;5051477;28;20104;-55
2024/01/03 06:58:12;;;;;;;12.57;2.58;;;10.70;99.90;;;;;;5035156;28;20037;-57
2024/01/03 07:00:38;;;;;;;16.25;2.40;;;10.70;99.90;;;;;;5055549;28;20025;-55
2024/01/03 07:03:04;;;;;;;11.65;2.13;;;10.70;99.90;;;;;;5055445;28;20040;-52
2024/01/03 07:05:29;;;;;;;11.07;2.72;;;10.70;99.90;;;;;;5055520;28;20499;-56
2024/01/03 07:07:56;;;;;;;8.18;1.90;;;10.70;99.90;;;;;;5055394;28;20025;-55
2024/01/03 07:10:22;;;;;;;13.48;2.75;;;10.60;99.90;;;;;;5055424;28;20025;-56
2024/01/03 07:12:48;;;;;;;14.73;2.80;;;10.70;99.90;;;;;;5055250;28;20066;-55
2024/01/03 07:15:17;;;;;;;13.70;3.65;;;10.70;99.90;;;;;;5055431;28;20072;-55
2024/01/03 07:17:43;;;;;;;11.38;2.03;;;10.70;99.90;;;;;;5055184;28;20025;-55
2024/01/03 07:20:09;;;;;;;6.25;1.92;;;10.70;99.90;;;;;;5055278;28;20021;-51
2024/01/03 07:22:35;;;;;;;8.73;2.03;;;10.70;99.90;;;;;;5037201;28;20167;-54
2024/01/03 07:25:00;;;;;;;8.82;1.92;;;10.70;99.90;;;;;;5055331;28;20096;-53
2024/01/03 07:27:26;;;;;;;9.10;2.33;;;10.70;99.90;;;;;;5055108;28;20033;-56
2024/01/03 07:29:53;;;;;;;13.80;2.88;;;10.60;99.90;;;;;;5055142;28;20029;-57
2024/01/03 07:32:19;;;;;;;14.80;2.33;;;10.70;99.90;;;;;;5055571;28;20514;-53
2024/01/03 07:34:44;;;;;;;14.35;3.38;;;10.70;99.90;;;;;;5037126;28;20024;-57
2024/01/03 07:37:10;;;;;;;11.30;2.53;;;10.60;99.90;;;;;;5055097;28;20399;-56
2024/01/03 07:39:36;;;;;;;8.18;1.90;;;10.60;99.90;;;;;;5054822;28;20037;-50
2024/01/03 07:42:01;;;;;;;10.48;2.15;;;10.70;99.90;;;;;;5055072;28;20067;-54
2024/01/03 07:44:33;;;;;;;6.03;1.80;;;10.70;99.90;;;;;;5054809;28;20025;-56
2024/01/03 07:46:58;;;;;;;5.90;1.23;;;10.80;99.90;;;;;;5055035;28;20400;-57
2024/01/03 07:49:24;;;;;;;6.03;1.20;;;10.80;99.90;;;;;;5037135;28;20029;-53
2024/01/03 07:51:51;;;;;;;4.50;1.08;;;10.80;99.90;;;;;;5054663;28;20427;-56
2024/01/03 07:54:17;;;;;;;3.33;0.80;;;10.90;99.90;;;;;;5054844;28;20071;-56
2024/01/03 07:56:42;;;;;;;7.57;1.20;;;10.90;99.90;;;;;;5054953;28;20025;-56
2024/01/03 07:59:08;;;;;;;5.25;1.35;;;10.90;99.90;;;;;;5054875;28;20111;-56
2024/01/03 08:01:35;;;;;;;11.00;1.60;;;10.90;99.90;;;;;;5054613;28;20025;-56
2024/01/03 08:04:01;;;;;;;4.07;2.25;;;10.80;99.90;;;;;;5053998;28;20024;-52
2024/01/03 08:06:26;;;;;;;7.38;1.65;;;10.80;99.90;;;;;;5054290;28;20027;-54
2024/01/03 08:08:52;;;;;;;10.75;3.20;;;10.70;99.90;;;;;;5053537;28;20484;-55
2024/01/03 08:11:18;;;;;;;5.68;1.23;;;10.80;99.90;;;;;;5053627;28;20496;-52
2024/01/03 08:13:44;;;;;;;8.40;1.40;;;10.80;99.90;;;;;;5054117;28;20033;-55
2024/01/03 08:16:11;;;;;;;5.85;1.33;;;10.80;99.90;;;;;;5054188;28;20107;-52
2024/01/03 08:18:36;;;;;;;6.72;1.27;;;10.80;99.90;;;;;;5054072;28;20500;-55
2024/01/03 08:21:02;;;;;;;5.72;1.15;;;10.80;99.90;;;;;;5036484;28;20098;-55
2024/01/03 08:23:27;;;;;;;3.58;1.08;;;10.80;99.90;;;;;;5053408;28;20028;-49
2024/01/03 08:25:53;;;;;;;7.88;1.38;;;10.80;99.90;;;;;;5054133;28;20061;-53
2024/01/03 08:28:18;;;;;;;5.30;1.35;;;10.80;99.90;;;;;;5053985;28;20040;-54
2024/01/03 08:30:44;;;;;;;4.50;1.17;;;10.80;99.90;;;;;;5053975;28;20045;-53
2024/01/03 08:33:09;;;;;;;4.53;0.85;;;10.80;99.90;;;;;;5053730;28;20025;-53
2024/01/03 08:35:35;;;;;;;2.00;0.80;;;10.90;99.90;;;;;;5053994;28;20041;-50
2024/01/03 08:38:00;;;;;;;1.83;1.00;;;10.90;99.90;;;;;;5035477;28;20032;-56
2024/01/03 08:40:26;;;;;;;5.43;1.15;;;11.00;99.90;;;;;;5035680;28;20125;-52
2024/01/03 08:42:51;;;;;;;4.38;1.40;;;11.00;99.90;;;;;;5053490;28;20087;-50
2024/01/03 08:45:17;;;;;;;4.30;0.95;;;11.10;99.90;;;;;;5053625;28;20365;-55
2024/01/03 08:47:42;;;;;;;6.43;1.10;;;11.10;99.90;;;;;;5053450;28;20417;-52
2024/01/03 08:50:09;;;;;;;5.22;0.85;;;11.10;99.90;;;;;;5053776;28;20052;-56
2024/01/03 08:52:34;;;;;;;2.53;1.33;;;11.20;99.90;;;;;;5035135;28;20033;-53
2024/01/03 08:55:00;;;;;;;4.72;1.73;;;11.20;99.90;;;;;;5035896;28;20452;-51
2024/01/03 08:57:25;;;;;;;5.07;1.20;;;11.20;99.90;;;;;;5053636;28;20025;-55
2024/01/03 08:59:51;;;;;;;2.72;0.75;;;11.30;99.90;;;;;;5053888;28;20484;-56
2024/01/03 09:02:16;;;;;;;4.55;1.13;;;11.40;99.90;;;;;;5053187;28;20025;-55
2024/01/03 09:04:42;;;;;;;2.92;0.80;;;11.90;99.90;;;;;;5035288;28;20396;-54
2024/01/03 09:07:07;;;;;;;3.78;1.00;;;12.50;99.90;;;;;;5053569;28;20021;-52
2024/01/03 09:09:32;;;;;;;2.58;0.80;;;13.00;99.90;;;;;;5053186;28;20427;-55
2024/01/03 09:11:58;;;;;;;1.65;0.82;;;13.30;99.90;;;;;;5053148;28;20060;-53
2024/01/03 09:14:23;;;;;;;2.10;0.80;;;13.20;99.90;;;;;;5035382;28;20476;-57
2024/01/03 09:16:50;;;;;;;1.42;0.70;;;12.80;99.90;;;;;;5053309;28;20029;-53
2024/01/03 09:19:16;;;;;;;5.38;0.75;;;12.80;99.90;;;;;;5052854;28;20025;-53
2024/01/03 09:21:45;;;;;;;3.47;0.60;;;13.10;99.90;;;;;;5052689;28;20101;-53
2024/01/03 09:24:11;;;;;;;5.10;1.25;;;13.50;99.90;;;;;;5053569;28;20550;-52
2024/01/03 09:26:37;;;;;;;1.98;1.05;;;13.40;99.90;;;;;;5046228;28;20037;-49
2024/01/03 09:29:02;;;;;;;2.83;0.95;;;13.30;99.90;;;;;;5053151;28;20040;-53
2024/01/03 09:31:30;;;;;;;2.88;0.70;;;13.20;99.90;;;;;;5035078;28;20021;-54
2024/01/03 09:33:55;;;;;;;3.75;0.80;;;13.20;99.90;;;;;;5052877;28;20408;-53
2024/01/03 09:36:21;;;;;;;2.22;1.08;;;13.20;99.90;;;;;;5034347;28;21132;-51
2024/01/03 09:38:48;;;;;;;2.92;1.08;;;13.50;99.90;;;;;;5052115;28;20029;-63
2024/01/03 09:41:14;;;;;;;2.67;1.23;;;13.90;99.90;;;;;;5052151;28;20033;-50
2024/01/03 09:43:45;;;;;;;2.38;1.02;;;14.00;99.90;;;;;;5052143;28;20031;-66
2024/01/03 09:46:11;;;;;;;4.35;0.98;;;14.00;99.90;;;;;;5052353;28;20021;-58
2024/01/03 09:48:46;;;;;;;3.45;1.30;;;13.60;99.90;;;;;;5051823;28;20048;-59
2024/01/03 09:51:12;;;;;;;;;;;13.40;99.90;;;;;;5052883;28;20045;-62
2024/01/03 09:53:39;;;;;;;;;;;13.30;99.90;;;;;;5052641;28;19905;-61
2024/01/03 09:56:05;;;;;;;2.72;0.88;;;13.40;99.90;;;;;;5052522;28;20399;-60
2024/01/03 09:58:32;;;;;;;7.60;2.13;;;13.80;99.90;;;;;;5033351;28;20029;-60
2024/01/03 10:00:57;;;;;;;3.55;0.98;;;14.10;99.90;;;;;;5052020;28;20424;-60
2024/01/03 10:03:23;;;;;;;4.65;0.95;;;14.00;99.90;;;;;;5051996;28;20256;-60
2024/01/03 10:06:10;;;;;;;6.82;1.40;;;13.70;99.90;;;;;;5034333;28;20017;-59
2024/01/03 10:08:36;;;;;;;4.95;1.30;;;13.60;99.90;;;;;;5051611;28;20032;-50
2024/01/03 10:11:16;;;;;;;4.63;1.02;;;13.70;99.90;;;;;;5051653;28;20086;-61
2024/01/03 10:13:42;;;;;;;3.08;0.88;;;13.70;99.90;;;;;;5051889;28;20040;-57
2024/01/03 10:16:07;;;;;;;5.57;1.30;;;14.00;99.90;;;;;;5052051;28;20033;-53
2024/01/03 10:18:33;;;;;;;7.68;1.20;;;14.10;99.90;;;;;;5051034;28;20536;-54
2024/01/03 10:21:12;;;;;;;3.28;1.23;;;14.20;99.90;;;;;;5051644;28;20029;-53
2024/01/03 10:23:38;;;;;;;5.88;1.55;;;14.20;99.90;;;;;;5050405;28;20032;-48
2024/01/03 10:26:03;;;;;;;4.90;1.60;;;14.00;99.90;;;;;;5052012;28;20097;-52
2024/01/03 10:28:29;;;;;;;6.68;1.67;;;13.70;99.90;;;;;;5051158;28;20043;-49
2024/01/03 10:30:55;;;;;;;5.70;1.20;;;13.70;99.90;;;;;;5050862;28;20116;-50
2024/01/03 10:33:21;;;;;;;7.00;1.80;;;13.80;99.90;;;;;;5050646;28;20044;-54
2024/01/03 10:35:46;;;;;;;6.25;1.15;;;14.10;99.90;;;;;;5033840;28;20029;-49
2024/01/03 10:38:15;;;;;;;5.68;1.30;;;14.40;99.90;;;;;;5051683;28;20037;-49
2024/01/03 10:40:41;;;;;;;5.43;1.50;;;14.80;99.90;;;;;;5051580;28;20095;-52
2024/01/03 10:43:08;;;;;;;8.00;1.45;;;15.10;99.90;;;;;;5051365;28;20021;-51
2024/01/03 10:45:34;;;;;;;9.20;1.52;;;15.30;99.90;;;;;;5033553;28;20029;-54
2024/01/03 10:48:00;;;;;;;2.78;1.13;;;15.50;99.90;;;;;;5051621;28;20108;-55
2024/01/03 10:50:25;;;;;;;7.43;1.67;;;15.10;99.90;;;;;;5051931;28;20365;-53
2024/01/03 10:52:56;;;;;;;7.32;1.70;;;14.50;99.90;;;;;;5051367;28;20071;-49
2024/01/03 10:55:26;;;;;;;6.95;1.60;;;14.20;99.90;;;;;;5033950;28;20107;-53
2024/01/03 10:57:58;;;;;;;6.53;2.05;;;14.00;99.90;;;;;;5050732;28;20032;-52
2024/01/03 11:00:43;;;;;;;7.53;2.25;;;13.80;99.90;;;;;;5051011;28;20052;-53
2024/01/03 11:03:43;;;;;;;4.18;1.52;;;13.50;99.90;;;;;;5050390;28;20032;-53
2024/01/03 11:06:17;;;;;;;11.85;2.95;;;13.40;99.90;;;;;;5033412;28;20115;-50
2024/01/03 11:08:57;;;;;;;6.40;1.33;;;13.20;99.90;;;;;;5051387;28;20057;-54
2024/01/03 11:11:33;;;;;;;5.85;1.48;;;13.10;99.90;;;;;;5050088;28;20029;-53
2024/01/03 11:14:21;;;;;;;13.00;1.38;;;13.20;99.90;;;;;;5050789;28;20035;-52
2024/01/03 11:16:47;;;;;;;6.05;1.38;;;13.30;99.90;;;;;;5051423;28;20369;-53
2024/01/03 11:19:13;;;;;;;8.02;1.60;;;13.40;99.90;;;;;;5032723;28;20032;-51
2024/01/03 11:21:41;;;;;;;7.63;1.23;;;13.40;99.90;;;;;;5051126;28;20025;-52
2024/01/03 11:24:21;;;;;;;8.80;1.70;;;13.40;99.90;;;;;;5050866;28;20021;-53
2024/01/03 11:27:07;;;;;;;6.30;1.33;;;13.50;99.90;;;;;;5047207;28;20021;-55
2024/01/03 11:29:35;;;;;;;;;;;13.50;99.90;;;;;;5051144;28;20204;-54
2024/01/03 11:32:05;;;;;;;7.45;1.40;;;13.50;99.90;;;;;;5051702;28;19995;-58
2024/01/03 11:34:45;;;;;;;11.75;2.05;;;13.30;99.90;;;;;;5032747;28;20025;-57
2024/01/03 11:37:10;;;;;;;6.65;2.13;;;13.10;99.90;;;;;;5032954;28;20032;-64
2024/01/03 11:39:45;;;;;;;6.38;1.77;;;13.00;99.90;;;;;;5032828;28;20021;-61
2024/01/03 11:42:18;;;;;;;10.70;1.48;;;13.00;99.90;;;;;;5050830;28;20032;-61
2024/01/03 11:44:43;;;;;;;6.55;2.38;;;13.00;99.90;;;;;;5053077;28;20128;-57
2024/01/03 11:47:11;;;;;;;5.93;1.67;;;12.90;99.90;;;;;;5054254;28;20116;-60
2024/01/03 11:49:36;;;;;;;6.10;2.20;;;12.90;99.90;;;;;;5054418;28;20107;-56
2024/01/03 11:52:02;;;;;;;8.20;2.03;;;12.90;99.90;;;;;;5055150;28;20053;-56
2024/01/03 11:54:28;;;;;;;6.38;1.65;;;12.80;99.90;;;;;;5036034;28;20499;-52
2024/01/03 11:56:56;;;;;;;9.90;2.10;;;12.80;99.90;;;;;;5054296;28;20404;-55
2024/01/03 11:59:22;;;;;;;8.23;1.90;;;12.80;99.90;;;;;;5036163;28;20058;-56
2024/01/03 12:02:00;;;;;;;12.23;2.80;;;12.80;99.90;;;;;;5053714;28;20029;-57
2024/01/03 12:04:26;;;;;;;9.77;1.63;;;12.80;99.90;;;;;;5036591;28;20435;-61
2024/01/03 12:06:59;;;;;;;9.82;1.92;;;12.90;99.90;;;;;;5053938;28;20024;-50
2024/01/03 12:09:29;;;;;;;8.48;2.60;;;12.90;99.90;;;;;;5053707;28;20021;-50
2024/01/03 12:11:54;;;;;;;12.57;2.05;;;13.00;99.90;;;;;;5042796;28;20025;-57
2024/01/03 12:14:20;;;;;;;8.48;1.70;;;13.20;99.90;;;;;;5052994;28;20404;-52
2024/01/03 12:16:47;;;;;;;4.78;1.63;;;13.30;99.90;;;;;;5054438;28;20068;-52
2024/01/03 12:19:25;;;;;;;8.35;1.45;;;13.40;99.90;;;;;;5035518;28;20029;-56
2024/01/03 12:22:01;;;;;;;5.28;1.63;;;13.30;99.90;;;;;;5052629;28;20025;-52
2024/01/03 12:24:45;;;;;;;4.95;1.60;;;13.30;99.90;;;;;;5035806;28;20021;-53
2024/01/03 12:27:25;;;;;;;4.72;1.40;;;13.30;99.90;;;;;;5060043;28;20024;-49
2024/01/03 12:29:51;;;;;;;10.43;2.13;;;13.20;99.90;;;;;;5059577;28;20104;-50
2024/01/03 12:32:18;;;;;;;6.35;2.05;;;13.10;99.90;;;;;;5052592;28;20147;-45
2024/01/03 12:34:49;;;;;;;6.78;1.63;;;13.10;99.90;;;;;;5035981;28;20048;-46
2024/01/03 12:37:15;;;;;;;6.50;1.55;;;13.00;99.90;;;;;;5053683;28;20036;-46
2024/01/03 12:39:41;;;;;;;7.07;1.48;;;13.00;99.90;;;;;;5035828;28;20031;-46
2024/01/03 12:42:09;;;;;;;5.25;1.08;;;12.90;99.90;;;;;;5053602;28;20029;-44
2024/01/03 12:44:43;;;;;;;8.02;2.50;;;12.90;99.90;;;;;;5054289;28;20405;-49